Time;durP1;ratioP1;P1;durP2;ratioP2;P2;SDS_P1;SDS_P2;PMS_P1;PMS_P2;Temp;Humidity;BMP_temperature;BMP_pressure;BME280_temperature;BME280_humidity;BME280_pressure;Samples;Min_cycle;Max_cycle;Signal;HPM_P1;HPM_P2
2024/04/22 00:00:05;;;;;;;1.70;0.60;;;;;;;8.09;76.45;99021.54;81865;1297;3011260;-61
2024/04/22 00:02:53;;;;;;;0.80;0.50;;;;;;;8.01;77.06;99015.02;80525;1298;3057418;-61
2024/04/22 00:05:20;;;;;;;0.50;0.50;;;;;;;8.03;76.96;99021.55;81779;1298;3013206;-60
2024/04/22 00:07:47;;;;;;;1.30;0.60;;;;;;;8.34;75.68;99026.89;81750;1298;3011464;-63
2024/04/22 00:10:15;;;;;;;4.60;0.50;;;;;;;8.74;73.95;99035.76;80544;1299;3026834;-62
2024/04/22 00:12:41;;;;;;;1.00;0.60;;;;;;;8.66;73.62;99031.30;81824;1298;3012567;-60
2024/04/22 00:15:08;;;;;;;0.50;0.40;;;;;;;8.64;73.39;99031.81;81766;1299;3011690;-61
2024/04/22 00:17:36;;;;;;;1.60;0.60;;;;;;;8.42;73.86;99043.02;80491;1298;3026740;-62
2024/04/22 00:20:03;;;;;;;0.90;0.60;;;;;;;8.43;73.87;99043.98;81783;1298;3018374;-62
2024/04/22 00:22:30;;;;;;;0.90;0.50;;;;;;;8.14;74.70;99051.93;81790;1298;3011498;-62
2024/04/22 00:24:58;;;;;;;1.50;0.60;;;;;;;8.09;74.81;99056.39;80406;1299;3025922;-62
2024/04/22 00:27:24;;;;;;;3.10;0.70;;;;;;;8.06;74.95;99067.07;81719;1302;3012997;-60
2024/04/22 00:29:51;;;;;;;1.90;0.60;;;;;;;8.10;74.86;99061.05;81773;1298;3011012;-61
2024/04/22 00:32:19;;;;;;;0.60;0.40;;;;;;;8.08;74.63;99072.71;80519;1299;3026370;-62
2024/04/22 00:34:46;;;;;;;3.10;0.70;;;;;;;7.98;74.92;99080.94;81843;1297;3012776;-62
2024/04/22 00:37:12;;;;;;;1.20;0.60;;;;;;;7.93;74.83;99085.20;81914;1295;3011175;-65
2024/04/22 00:39:40;;;;;;;0.60;0.50;;;;;;;7.79;75.07;99065.21;80638;1296;3025922;-64
2024/04/22 00:42:07;;;;;;;1.10;0.60;;;;;;;7.79;75.23;99071.69;81912;1297;3012571;-60
2024/04/22 00:44:33;;;;;;;2.10;0.80;;;;;;;7.68;75.67;99072.49;81856;1297;3011067;-61
2024/04/22 00:47:01;;;;;;;0.90;0.70;;;;;;;7.59;75.98;99078.88;80612;1297;3027166;-62
2024/04/22 00:49:28;;;;;;;1.30;0.80;;;;;;;7.55;76.15;99085.91;81882;1297;3012890;-63
2024/04/22 00:51:54;;;;;;;0.80;0.50;;;;;;;7.53;76.23;99097.17;81866;1297;3011217;-61
2024/04/22 00:54:22;;;;;;;1.30;0.70;;;;;;;7.43;76.96;99101.52;80586;1301;3025892;-62
2024/04/22 00:56:49;;;;;;;0.60;0.50;;;;;;;7.42;76.94;99101.07;81887;1298;3012879;-63
2024/04/22 00:59:15;;;;;;;1.40;0.50;;;;;;;7.34;77.13;99099.05;81856;1298;3011457;-60
2024/04/22 01:01:43;;;;;;;0.70;0.50;;;;;;;7.39;77.35;99099.47;80587;1297;3026578;-61
2024/04/22 01:04:10;;;;;;;1.90;0.50;;;;;;;7.70;76.09;99106.36;81914;1297;3018710;-61
2024/04/22 01:06:36;;;;;;;0.60;0.50;;;;;;;7.97;75.10;99103.48;81833;1298;3011327;-61
2024/04/22 01:09:04;;;;;;;0.50;0.50;;;;;;;7.89;74.91;99111.77;80613;1297;3026487;-61
2024/04/22 01:11:30;;;;;;;1.90;0.60;;;;;;;7.86;74.95;99107.92;81892;1297;3012660;-62
2024/04/22 01:13:57;;;;;;;1.10;0.60;;;;;;;7.67;75.86;99122.56;81730;1298;3011505;-64
2024/04/22 01:16:25;;;;;;;0.80;0.60;;;;;;;7.56;76.51;99120.73;80615;1298;3025821;-61
2024/04/22 01:18:52;;;;;;;1.40;0.70;;;;;;;7.46;77.05;99118.96;81902;1297;3012763;-61
2024/04/22 01:21:28;;;;;;;1.10;0.80;;;;;;;7.59;76.76;99122.27;81847;1297;3011199;-61
2024/04/22 01:23:56;;;;;;;1.50;0.90;;;;;;;7.41;77.66;99119.77;80617;1297;3052124;-61
2024/04/22 01:26:24;;;;;;;1.90;0.90;;;;;;;7.31;78.20;99119.93;81884;1297;3018127;-63
2024/04/22 01:28:50;;;;;;;1.60;0.70;;;;;;;7.28;78.69;99120.77;81829;1297;3011151;-63
2024/04/22 01:31:18;;;;;;;4.40;1.10;;;;;;;7.23;78.76;99130.31;80630;1297;3056094;-59
2024/04/22 01:33:45;;;;;;;1.30;0.80;;;;;;;7.13;79.61;99133.27;81895;1298;3012284;-63
2024/04/22 01:36:11;;;;;;;2.40;1.00;;;;;;;7.97;77.16;99134.51;81861;1298;3010924;-62
2024/04/22 01:38:39;;;;;;;1.80;0.90;;;;;;;8.20;74.77;99141.11;80659;1297;3026037;-62
2024/04/22 01:41:06;;;;;;;1.00;0.60;;;;;;;8.03;74.72;99137.52;81953;1296;3012747;-61
2024/04/22 01:43:32;;;;;;;0.80;0.70;;;;;;;8.01;74.83;99152.81;81868;1297;3011501;-64
2024/04/22 01:46:03;;;;;;;1.40;0.90;;;;;;;7.69;75.67;99151.21;80646;1297;3026531;-61
2024/04/22 01:48:30;;;;;;;1.20;0.70;;;;;;;7.50;76.39;99152.24;81892;1297;3011269;-61
2024/04/22 01:50:58;;;;;;;0.90;0.70;;;;;;;7.51;76.10;99152.70;81372;1296;3011510;-62
2024/04/22 01:53:25;;;;;;;1.30;0.70;;;;;;;7.36;76.68;99161.13;81960;1296;3014362;-62
2024/04/22 01:55:56;;;;;;;2.20;0.90;;;;;;;7.32;76.94;99164.15;81959;1295;3010967;-61
2024/04/22 01:58:24;;;;;;;1.70;0.90;;;;;;;7.36;76.45;99161.14;80702;1297;3069710;-62
2024/04/22 02:00:51;;;;;;;0.80;0.60;;;;;;;7.25;76.82;99161.55;81969;1296;3018563;-59
2024/04/22 02:03:17;;;;;;;3.60;1.00;;;;;;;7.11;77.31;99160.12;81917;1296;3011271;-60
2024/04/22 02:05:45;;;;;;;1.70;0.90;;;;;;;7.03;78.00;99160.22;80725;1296;3026714;-61
2024/04/22 02:08:11;;;;;;;1.70;1.10;;;;;;;6.89;78.67;99165.81;81945;1295;3018249;-62
2024/04/22 02:10:38;;;;;;;0.90;0.70;;;;;;;6.91;79.00;99170.08;81938;1295;3011320;-63
2024/04/22 02:13:07;;;;;;;1.90;1.00;;;;;;;7.34;77.16;99175.67;80685;1295;3068289;-60
2024/04/22 02:15:33;;;;;;;1.40;0.90;;;;;;;7.63;76.18;99181.02;81982;1296;3018430;-58
2024/04/22 02:18:00;;;;;;;1.50;0.80;;;;;;;7.69;75.31;99186.45;81968;1296;3011279;-62
2024/04/22 02:20:28;;;;;;;1.80;1.30;;;;;;;7.60;75.33;99188.84;80693;1295;3026123;-62
2024/04/22 02:22:55;;;;;;;1.20;0.80;;;;;;;7.22;77.00;99192.37;81959;1296;3018950;-61
2024/04/22 02:25:21;;;;;;;3.10;0.90;;;;;;;7.03;77.63;99198.73;81944;1295;3011196;-61
2024/04/22 02:27:50;;;;;;;1.10;0.80;;;;;;;6.88;78.51;99198.56;80687;1296;3026766;-61
2024/04/22 02:30:17;;;;;;;3.40;1.00;;;;;;;6.81;78.55;99201.36;81947;1295;3011567;-61
2024/04/22 02:32:44;;;;;;;1.60;0.80;;;;;;;6.78;78.69;99208.48;81946;1296;3011395;-61
2024/04/22 02:35:11;;;;;;;2.00;1.10;;;;;;;6.78;78.65;99210.35;80683;1296;3052424;-60
2024/04/22 02:37:38;;;;;;;1.40;0.90;;;;;;;6.62;79.69;99215.88;81969;1296;3013225;-60
2024/04/22 02:40:05;;;;;;;2.30;0.80;;;;;;;6.42;80.82;99214.02;81920;1296;3011120;-62
2024/04/22 02:42:33;;;;;;;2.20;0.80;;;;;;;6.86;79.56;99213.12;80669;1298;3025868;-60
2024/04/22 02:44:59;;;;;;;5.30;1.50;;;;;;;7.21;77.84;99224.27;81980;1295;3012988;-61
2024/04/22 02:47:26;;;;;;;2.40;0.90;;;;;;;7.10;77.60;99220.32;81958;1295;3011148;-64
2024/04/22 02:49:54;;;;;;;0.90;0.70;;;;;;;6.88;78.50;99233.93;80650;1296;3026369;-61
2024/04/22 02:52:20;;;;;;;2.50;0.70;;;;;;;6.75;79.08;99238.91;81926;1297;3012608;-64
2024/04/22 02:54:47;;;;;;;2.20;0.70;;;;;;;6.56;79.61;99238.56;81934;1295;3011357;-63
2024/04/22 02:57:15;;;;;;;1.90;1.10;;;;;;;6.41;80.27;99241.55;80660;1296;3026301;-64
2024/04/22 02:59:41;;;;;;;1.20;0.70;;;;;;;6.41;80.40;99246.78;81952;1296;3012745;-63
2024/04/22 03:02:09;;;;;;;2.40;1.00;;;;;;;6.34;80.72;99253.37;81978;1295;3011201;-64
2024/04/22 03:04:37;;;;;;;1.80;1.00;;;;;;;6.20;81.40;99253.30;80680;1296;3052094;-63
2024/04/22 03:07:05;;;;;;;1.90;0.70;;;;;;;6.31;81.46;99256.46;81955;1297;3018153;-63
2024/04/22 03:09:39;;;;;;;1.10;0.70;;;;;;;7.00;79.30;99255.13;81958;1300;3011224;-63
2024/04/22 03:12:07;;;;;;;1.50;0.70;;;;;;;7.36;76.75;99251.05;80696;1298;3069453;-63
2024/04/22 03:14:34;;;;;;;1.90;1.00;;;;;;;7.28;76.52;99254.58;81972;1296;3012295;-65
2024/04/22 03:17:00;;;;;;;1.60;1.00;;;;;;;7.06;77.14;99258.27;81908;1296;3011102;-65
2024/04/22 03:19:28;;;;;;;2.40;0.90;;;;;;;6.98;77.26;99255.91;80687;1297;3026001;-65
2024/04/22 03:21:55;;;;;;;1.90;0.90;;;;;;;6.83;77.82;99258.02;81944;1297;3012706;-65
2024/04/22 03:24:21;;;;;;;1.40;1.20;;;;;;;6.71;78.25;99259.27;81941;1297;3011468;-65
2024/04/22 03:26:50;;;;;;;3.50;0.90;;;;;;;6.56;78.79;99260.35;80694;1296;3026381;-64
2024/04/22 03:29:17;;;;;;;3.80;1.10;;;;;;;6.54;78.85;99257.83;81967;1296;3012610;-63
2024/04/22 03:31:43;;;;;;;1.60;0.80;;;;;;;6.38;79.51;99268.14;81908;1296;3011520;-63
2024/04/22 03:34:11;;;;;;;1.50;1.00;;;;;;;6.45;79.18;99262.77;80715;1296;3052783;-64
2024/04/22 03:36:38;;;;;;;2.60;1.20;;;;;;;6.34;79.46;99265.72;81983;1295;3012958;-63
2024/04/22 03:39:04;;;;;;;1.40;1.00;;;;;;;6.43;80.03;99265.98;81956;1296;3011197;-63
2024/04/22 03:41:32;;;;;;;1.80;1.20;;;;;;;6.90;78.14;99264.62;80649;1295;3025472;-64
2024/04/22 03:43:59;;;;;;;3.90;0.80;;;;;;;7.21;76.67;99268.36;82020;1295;3018054;-66
2024/04/22 03:52:15;;;;;;;2.70;1.50;;;;;;;6.55;79.01;99292.95;80303;1303;3048989;-64
2024/04/22 03:54:41;;;;;;;4.30;1.80;;;;;;;6.57;78.93;99299.80;81881;1297;3012964;-65
2024/04/22 03:57:08;;;;;;;3.60;1.50;;;;;;;6.57;79.17;99298.23;81892;1297;3011256;-63
2024/04/22 03:59:36;;;;;;;4.40;1.80;;;;;;;6.58;78.90;99296.27;80659;1296;3026433;-64
2024/04/22 04:02:02;;;;;;;4.10;1.60;;;;;;;6.55;79.08;99309.10;81987;1295;3012485;-63
2024/04/22 04:04:29;;;;;;;2.70;1.40;;;;;;;6.59;78.87;99313.12;81918;1296;3011241;-64
2024/04/22 04:06:57;;;;;;;2.20;1.50;;;;;;;6.61;78.80;99307.27;80644;1298;3028260;-63
2024/04/22 04:09:24;;;;;;;2.20;1.40;;;;;;;7.11;77.50;99299.13;81966;1297;3012633;-65
2024/04/22 04:11:51;;;;;;;2.70;1.70;;;;;;;7.41;75.66;99300.66;81975;1295;3013237;-64
2024/04/22 04:14:19;;;;;;;2.60;1.30;;;;;;;7.31;75.49;99304.64;80678;1295;3017894;-63
2024/04/22 04:16:45;;;;;;;1.90;1.10;;;;;;;7.30;76.00;99304.81;81984;1295;3018650;-65
2024/04/22 04:19:12;;;;;;;3.80;1.20;;;;;;;7.25;76.06;99306.63;81971;1295;3012630;-65
2024/04/22 04:21:39;;;;;;;2.10;0.90;;;;;;;7.21;76.04;99316.60;80732;1295;3019459;-66
2024/04/22 04:24:06;;;;;;;1.70;1.30;;;;;;;7.18;75.39;99316.22;82014;1296;3013152;-64
2024/04/22 04:26:32;;;;;;;2.90;1.10;;;;;;;7.20;75.65;99317.89;81958;1298;3012792;-65
2024/04/22 04:29:00;;;;;;;1.50;1.10;;;;;;;7.17;75.86;99322.21;80726;1295;3017690;-63
2024/04/22 04:31:27;;;;;;;2.10;1.40;;;;;;;7.17;75.57;99319.23;82023;1295;3018200;-64
2024/04/22 04:33:53;;;;;;;3.30;1.50;;;;;;;7.18;75.40;99323.20;81923;1296;3013151;-64
2024/04/22 04:36:21;;;;;;;2.30;1.40;;;;;;;7.26;75.09;99319.15;80673;1296;3018144;-63
2024/04/22 04:38:48;;;;;;;2.20;1.20;;;;;;;7.26;74.99;99324.54;81972;1300;3018568;-63
2024/04/22 04:41:14;;;;;;;2.50;1.30;;;;;;;7.40;74.35;99329.45;81985;1300;3013083;-65
2024/04/22 04:43:42;;;;;;;2.40;1.50;;;;;;;7.26;74.29;99338.33;80697;1296;3018479;-63
2024/04/22 04:46:09;;;;;;;1.70;1.10;;;;;;;7.45;73.78;99347.67;81972;1297;3018606;-62
2024/04/22 04:48:36;;;;;;;2.70;1.30;;;;;;;7.43;73.99;99343.93;81937;1299;3012779;-65
2024/04/22 04:51:04;;;;;;;4.00;1.20;;;;;;;7.50;74.09;99347.23;80681;1297;3025397;-65
2024/04/22 04:53:31;;;;;;;2.90;1.50;;;;;;;7.67;73.52;99348.48;81965;1297;3018839;-63
2024/04/22 04:55:57;;;;;;;2.00;1.10;;;;;;;7.65;73.28;99355.55;81923;1297;3011361;-64
2024/04/22 04:58:25;;;;;;;2.00;1.20;;;;;;;7.75;72.87;99354.67;80662;1296;3026679;-64
2024/04/22 05:00:52;;;;;;;2.70;1.20;;;;;;;7.88;72.10;99357.52;81970;1296;3018850;-67
2024/04/22 05:03:19;;;;;;;1.50;1.10;;;;;;;7.94;71.57;99371.20;81934;1297;3011437;-63
2024/04/22 05:05:58;;;;;;;4.00;1.20;;;;;;;7.97;71.36;99378.70;80700;1296;3025970;-63
2024/04/22 05:08:26;;;;;;;1.70;1.10;;;;;;;7.85;71.51;99387.48;80702;1296;3052817;-63
2024/04/22 05:10:53;;;;;;;1.90;1.10;;;;;;;7.97;71.27;99391.97;81973;1296;3012789;-64
2024/04/22 05:13:20;;;;;;;5.10;1.20;;;;;;;8.17;70.72;99391.27;81948;1295;3011682;-64
2024/04/22 05:15:48;;;;;;;2.40;1.30;;;;;;;8.09;70.89;99398.69;80675;1296;3025583;-67
2024/04/22 05:18:15;;;;;;;2.50;1.40;;;;;;;8.22;70.06;99403.05;81894;1295;3019355;-67
2024/04/22 05:20:41;;;;;;;2.10;1.10;;;;;;;8.21;70.27;99396.48;81923;1296;3011047;-64
2024/04/22 05:23:09;;;;;;;2.10;1.10;;;;;;;8.34;69.19;99393.55;80464;1300;3027278;-67
2024/04/22 05:25:36;;;;;;;3.60;1.30;;;;;;;8.33;69.25;99409.13;81983;1297;3012649;-68
2024/04/22 05:28:02;;;;;;;2.00;1.00;;;;;;;8.23;69.67;99404.41;81903;1296;3012245;-63
2024/04/22 05:30:30;;;;;;;2.00;1.00;;;;;;;8.31;69.21;99399.67;80688;1295;3026019;-65
2024/04/22 05:33:03;;;;;;;1.90;0.90;;;;;;;8.37;68.84;99408.78;81869;1296;3013386;-65
2024/04/22 05:38:18;;;;;;;2.00;1.10;;;;;;;8.39;69.00;99412.50;80657;1295;3043144;-64
2024/04/22 05:40:44;;;;;;;2.40;1.00;;;;;;;8.50;68.99;99413.00;81942;1300;3013132;-62
2024/04/22 05:43:11;;;;;;;3.20;1.20;;;;;;;8.67;68.44;99416.99;81961;1295;3013118;-63
2024/04/22 05:45:39;;;;;;;2.20;1.00;;;;;;;8.62;67.93;99424.60;80656;1295;3018578;-61
2024/04/22 05:48:06;;;;;;;1.70;1.10;;;;;;;8.66;68.22;99416.17;81971;1294;3013098;-64
2024/04/22 05:50:33;;;;;;;1.90;1.30;;;;;;;8.81;67.51;99424.09;81932;1295;3011619;-67
2024/04/22 05:53:01;;;;;;;2.20;1.10;;;;;;;8.88;67.03;99423.73;80733;1298;3025941;-63
2024/04/22 05:55:27;;;;;;;1.30;0.80;;;;;;;8.86;67.12;99437.12;81968;1297;3012922;-62
2024/04/22 05:57:54;;;;;;;1.20;1.00;;;;;;;9.02;66.78;99445.67;82016;1295;3011276;-63
2024/04/22 06:00:22;;;;;;;3.40;0.90;;;;;;;9.07;66.61;99443.63;80745;1295;3026422;-66
2024/04/22 06:02:48;;;;;;;2.90;0.80;;;;;;;9.07;66.06;99441.00;81874;1295;3012679;-65
2024/04/22 06:05:15;;;;;;;1.60;0.90;;;;;;;9.00;66.12;99451.56;81901;1295;3011415;-65
2024/04/22 06:07:43;;;;;;;0.50;0.40;;;;;;;9.04;66.05;99446.62;80693;1297;3026485;-64
2024/04/22 06:10:09;;;;;;;1.50;0.80;;;;;;;9.05;65.69;99454.27;82031;1294;3018222;-64
2024/04/22 06:12:36;;;;;;;1.00;0.70;;;;;;;9.05;65.59;99457.23;81895;1295;3011287;-63
2024/04/22 06:15:05;;;;;;;1.10;0.70;;;;;;;9.23;65.20;99460.11;80655;1295;3026987;-63
2024/04/22 06:17:31;;;;;;;5.80;0.90;;;;;;;9.37;64.72;99459.30;81978;1295;3012861;-64
2024/04/22 06:19:58;;;;;;;1.60;0.90;;;;;;;9.44;64.49;99462.08;82012;1295;3011293;-65
2024/04/22 06:22:26;;;;;;;1.00;0.60;;;;;;;9.46;64.98;99457.90;80635;1295;3053626;-63
2024/04/22 06:24:52;;;;;;;1.30;0.70;;;;;;;9.54;64.47;99459.59;81920;1298;3018876;-66
2024/04/22 06:27:19;;;;;;;0.80;0.60;;;;;;;9.59;64.45;99464.88;81898;1297;3011115;-63
2024/04/22 06:29:47;;;;;;;1.50;0.50;;;;;;;9.68;63.79;99481.02;80652;1295;3026577;-63
2024/04/22 06:32:14;;;;;;;1.20;0.70;;;;;;;9.77;63.32;99478.57;81929;1294;3012644;-61
2024/04/22 06:34:41;;;;;;;0.70;0.50;;;;;;;9.81;62.76;99484.14;81915;1295;3011475;-63
2024/04/22 06:37:09;;;;;;;1.80;0.70;;;;;;;9.80;63.06;99495.92;80685;1297;3026254;-64
2024/04/22 06:39:35;;;;;;;4.80;0.80;;;;;;;9.84;62.33;99497.95;81970;1296;3013146;-62
2024/04/22 06:42:02;;;;;;;1.20;0.70;;;;;;;9.95;62.40;99486.16;81932;1297;3011294;-63
2024/04/22 06:44:30;;;;;;;1.70;0.70;;;;;;;10.09;61.99;99488.30;80676;1295;3026605;-63
2024/04/22 06:46:58;;;;;;;3.10;0.70;;;;;;;10.13;61.73;99494.86;81941;1296;3013492;-64
2024/04/22 06:49:25;;;;;;;3.20;0.70;;;;;;;10.10;61.34;99496.61;81936;1295;3011892;-64
2024/04/22 06:51:52;;;;;;;1.40;0.50;;;;;;;10.18;60.93;99491.27;80696;1297;3052595;-62
2024/04/22 06:54:19;;;;;;;1.40;0.60;;;;;;;10.32;61.35;99491.17;81980;1296;3013002;-61
2024/04/22 06:56:46;;;;;;;3.50;0.80;;;;;;;10.32;61.81;99487.84;81925;1295;3011771;-64
2024/04/22 06:59:13;;;;;;;2.70;0.80;;;;;;;10.47;60.63;99499.72;80697;1297;3026399;-63
2024/04/22 07:01:40;;;;;;;0.50;0.50;;;;;;;10.56;60.04;99520.25;81935;1295;3013062;-63
2024/04/22 07:04:06;;;;;;;5.20;0.80;;;;;;;10.44;60.16;99504.48;81939;1298;3011394;-61
2024/04/22 07:06:34;;;;;;;1.60;0.70;;;;;;;10.60;60.51;99499.86;80661;1298;3026015;-62
2024/04/22 07:09:09;;;;;;;3.80;0.70;;;;;;;10.78;60.20;99513.14;81950;1297;3018282;-63
2024/04/22 07:11:37;;;;;;;1.20;0.90;;;;;;;10.83;60.06;99503.39;80711;1297;3052068;-62
2024/04/22 07:14:04;;;;;;;1.40;0.90;;;;;;;10.90;59.34;99507.84;81957;1296;3012535;-61
2024/04/22 07:16:32;;;;;;;2.10;1.00;;;;;;;10.99;59.56;99508.04;81955;1295;3011575;-59
2024/04/22 07:18:59;;;;;;;2.60;0.90;;;;;;;11.11;59.30;99508.14;80692;1295;3049284;-60
2024/04/22 07:21:26;;;;;;;5.20;0.80;;;;;;;11.31;59.11;99517.05;82002;1295;3013011;-61
2024/04/22 07:23:52;;;;;;;1.90;1.20;;;;;;;11.26;58.74;99513.55;81912;1295;3011624;-58
2024/04/22 07:26:20;;;;;;;1.20;0.80;;;;;;;11.32;58.09;99525.29;80700;1298;3027567;-62
2024/04/22 07:28:47;;;;;;;0.80;0.60;;;;;;;11.33;57.18;99532.23;81970;1296;3018158;-60
2024/04/22 07:31:14;;;;;;;1.30;0.70;;;;;;;11.36;56.90;99530.45;81919;1295;3011815;-60
2024/04/22 07:33:42;;;;;;;1.10;0.80;;;;;;;11.40;57.29;99538.74;80713;1295;3026120;-61
2024/04/22 07:36:14;;;;;;;0.70;0.50;;;;;;;11.45;56.24;99534.42;82016;1298;3019104;-63
2024/04/22 07:38:43;;;;;;;0.90;0.60;;;;;;;11.44;56.01;99533.29;80696;1295;3068473;-60
2024/04/22 07:41:09;;;;;;;1.10;0.70;;;;;;;11.65;55.30;99534.26;81971;1295;3018417;-61
2024/04/22 07:43:36;;;;;;;1.80;0.80;;;;;;;11.79;55.01;99538.44;81939;1300;3011012;-60
2024/04/22 07:46:04;;;;;;;1.80;0.70;;;;;;;11.93;54.72;99538.42;80685;1298;3025052;-61
2024/04/22 07:48:31;;;;;;;1.00;0.70;;;;;;;11.96;53.54;99547.55;81956;1297;3013103;-60
2024/04/22 07:50:57;;;;;;;4.20;0.80;;;;;;;12.07;53.34;99551.39;81976;1295;3011334;-64
2024/04/22 07:53:25;;;;;;;1.70;0.70;;;;;;;12.18;52.99;99554.36;80740;1295;3026569;-64
2024/04/22 07:55:52;;;;;;;4.40;0.90;;;;;;;12.32;52.56;99557.63;81989;1296;3011398;-61
2024/04/22 07:58:19;;;;;;;1.20;0.80;;;;;;;12.29;51.75;99564.70;81899;1297;3011258;-61
2024/04/22 08:00:47;;;;;;;3.50;0.70;;;;;;;12.31;51.69;99565.79;80718;1295;3025874;-62
2024/04/22 08:03:14;;;;;;;0.50;0.40;;;;;;;12.31;52.01;99571.77;81976;1295;3012726;-63
2024/04/22 08:05:40;;;;;;;0.90;0.60;;;;;;;12.31;52.05;99576.89;81979;1296;3011436;-64
2024/04/22 08:08:08;;;;;;;1.30;0.70;;;;;;;12.37;51.87;99576.48;80691;1298;3026432;-64
2024/04/22 08:10:35;;;;;;;0.90;0.80;;;;;;;12.43;51.54;99583.46;81897;1295;3018482;-63
2024/04/22 08:13:01;;;;;;;2.70;0.80;;;;;;;12.39;51.00;99573.15;81938;1296;3011463;-64
2024/04/22 08:15:31;;;;;;;1.10;0.70;;;;;;;12.47;50.49;99569.83;80689;1298;3052785;-62
2024/04/22 08:17:57;;;;;;;1.30;0.60;;;;;;;12.52;50.03;99578.24;81957;1298;3012796;-62
2024/04/22 08:20:24;;;;;;;1.00;0.50;;;;;;;12.69;49.97;99572.80;81955;1298;3011318;-60
2024/04/22 08:22:52;;;;;;;1.70;0.70;;;;;;;12.77;51.05;99568.89;80759;1296;3025920;-61
2024/04/22 08:25:19;;;;;;;1.30;0.60;;;;;;;12.81;50.61;99586.91;81974;1295;3018244;-63
2024/04/22 08:27:45;;;;;;;3.90;0.70;;;;;;;12.94;49.94;99574.94;81931;1298;3011347;-64
2024/04/22 08:30:13;;;;;;;2.60;0.70;;;;;;;13.14;49.97;99567.18;80731;1295;3026337;-61
2024/04/22 08:32:40;;;;;;;2.40;0.50;;;;;;;13.35;49.29;99567.55;81959;1298;3011279;-62
2024/04/22 08:35:06;;;;;;;1.30;1.10;;;;;;;13.38;47.99;99575.21;81927;1299;3011648;-59
2024/04/22 08:37:34;;;;;;;1.00;0.60;;;;;;;13.37;48.12;99566.01;80660;1296;3026539;-60
2024/04/22 08:54:08;;;;;;;1.40;0.60;;;;;;;13.99;46.07;99564.50;80978;1292;3012727;-63
2024/04/22 08:56:35;;;;;;;2.00;0.80;;;;;;;14.24;45.77;99567.10;80120;1295;3173950;-65
2024/04/22 08:59:02;;;;;;;1.10;0.60;;;;;;;14.48;45.05;99567.63;79921;1292;3011486;-64
2024/04/22 09:01:30;;;;;;;1.30;0.70;;;;;;;14.48;44.70;99569.21;78368;1294;3051962;-63
2024/04/22 09:03:57;;;;;;;1.80;0.70;;;;;;;14.45;45.06;99565.41;80066;1291;3015118;-60
2024/04/22 09:06:24;;;;;;;1.60;0.70;;;;;;;14.69;44.77;99568.39;79679;1294;3013497;-62
2024/04/22 09:08:53;;;;;;;4.40;0.70;;;;;;;14.65;44.29;99572.04;78767;1291;3028427;-60
2024/04/22 09:11:22;;;;;;;6.60;0.80;;;;;;;14.79;44.62;99575.95;80520;1292;3013339;-62
2024/04/22 09:14:00;;;;;;;1.20;0.70;;;;;;;14.91;43.79;99576.92;79427;1294;3011846;-64
2024/04/22 09:16:28;;;;;;;1.10;0.80;;;;;;;14.97;43.37;99591.63;78443;1294;3053307;-63
2024/04/22 09:18:55;;;;;;;1.00;0.50;;;;;;;14.93;42.54;99587.75;80327;1294;3011535;-62
2024/04/22 09:21:23;;;;;;;1.90;0.70;;;;;;;14.96;42.18;99582.71;80411;1291;3011444;-64
2024/04/22 09:23:50;;;;;;;1.30;0.60;;;;;;;15.11;41.12;99587.08;78783;1291;3055730;-63
2024/04/22 09:26:17;;;;;;;0.60;0.60;;;;;;;15.15;40.76;99593.08;80107;1290;3011530;-60
2024/04/22 09:28:44;;;;;;;2.10;0.60;;;;;;;15.18;38.82;99606.77;79990;1295;3011548;-62
2024/04/22 09:31:12;;;;;;;0.80;0.50;;;;;;;15.23;38.35;99594.26;79020;1291;3029344;-64
2024/04/22 09:33:39;;;;;;;2.80;0.80;;;;;;;15.34;38.81;99603.14;79835;1294;3014024;-64
2024/04/22 09:36:06;;;;;;;0.80;0.60;;;;;;;15.17;39.82;99604.39;80471;1291;3011654;-63
2024/04/22 09:38:34;;;;;;;0.80;0.50;;;;;;;15.24;39.77;99601.59;78702;1294;3056107;-64
2024/04/22 09:41:03;;;;;;;1.00;0.60;;;;;;;15.48;38.90;99590.67;80073;1292;3019030;-61
2024/04/22 09:43:35;;;;;;;1.10;0.60;;;;;;;15.52;38.78;99596.05;81189;1291;3011607;-65
2024/04/22 09:46:03;;;;;;;3.20;0.70;;;;;;;15.52;38.92;99597.43;79523;1290;3052005;-62
2024/04/22 09:48:30;;;;;;;1.00;0.80;;;;;;;15.83;38.80;99610.00;79931;1298;3013457;-55
2024/04/22 09:50:58;;;;;;;1.80;0.50;;;;;;;15.90;38.48;99601.37;79956;1295;3012818;-59
2024/04/22 09:53:26;;;;;;;1.80;0.50;;;;;;;15.87;38.03;99609.38;78298;1295;3056007;-57
2024/04/22 09:55:58;;;;;;;3.60;0.80;;;;;;;15.68;37.61;99615.09;79506;1296;3013778;-62
2024/04/22 09:58:26;;;;;;;4.40;0.80;;;;;;;15.48;38.10;99620.19;78494;1298;3050597;-58
2024/04/22 11:38:33;;;;;;;3.10;1.40;;;;;;;17.79;33.16;99623.32;66337;1323;3052965;-58
2024/04/22 11:41:00;;;;;;;3.80;1.00;;;;;;;17.79;33.36;99624.42;78224;1318;3013272;-57
2024/04/22 11:43:26;;;;;;;4.40;1.80;;;;;;;17.85;33.68;99618.95;77918;1328;3012475;-61
2024/04/22 11:45:54;;;;;;;3.40;1.30;;;;;;;17.95;34.03;99617.02;76938;1318;3026406;-59
2024/04/22 11:48:21;;;;;;;3.00;1.40;;;;;;;17.89;33.79;99616.15;77939;1312;3013178;-59
2024/04/22 11:50:47;;;;;;;4.40;1.50;;;;;;;17.89;33.72;99622.30;78208;1312;3011703;-58
2024/04/22 11:53:15;;;;;;;4.30;1.30;;;;;;;17.86;33.63;99620.06;76969;1317;3028270;-59
2024/04/22 11:55:43;;;;;;;2.40;1.20;;;;;;;18.11;33.19;99615.10;78185;1317;3012687;-60
2024/04/22 11:58:09;;;;;;;1.60;0.90;;;;;;;18.13;31.32;99613.60;78182;1312;3011625;-59
2024/04/22 12:00:37;;;;;;;2.60;1.20;;;;;;;18.05;31.08;99605.70;76923;1315;3069678;-59
2024/04/22 12:03:04;;;;;;;2.30;1.30;;;;;;;18.04;32.17;99607.16;78164;1318;3013001;-59
2024/04/22 12:05:32;;;;;;;3.40;1.50;;;;;;;18.32;32.29;99606.08;78135;1315;3013397;-55
2024/04/22 12:08:00;;;;;;;2.70;1.40;;;;;;;18.79;32.18;99612.45;77089;1315;3054193;-58
2024/04/22 12:10:26;;;;;;;3.70;1.20;;;;;;;18.93;31.53;99629.48;78143;1315;3019312;-59
2024/04/22 12:12:53;;;;;;;3.20;1.10;;;;;;;18.76;30.61;99622.25;77849;1312;3011842;-58
2024/04/22 12:15:21;;;;;;;1.80;1.00;;;;;;;18.76;30.92;99614.52;77099;1311;3025769;-57
2024/04/22 12:17:48;;;;;;;1.70;1.10;;;;;;;18.77;31.81;99619.40;78150;1312;3013227;-57
2024/04/22 12:20:15;;;;;;;2.60;1.20;;;;;;;18.55;32.12;99619.02;78120;1315;3013230;-55
2024/04/22 12:22:43;;;;;;;3.20;0.80;;;;;;;18.70;32.64;99610.93;76987;1315;3027327;-59
2024/04/22 12:25:09;;;;;;;2.10;1.00;;;;;;;18.75;32.70;99609.61;78169;1318;3019314;-58
2024/04/22 12:27:36;;;;;;;1.10;0.90;;;;;;;18.71;32.66;99611.92;78217;1312;3011430;-59
2024/04/22 12:30:06;;;;;;;3.40;1.10;;;;;;;18.51;32.49;99604.88;76884;1312;3026681;-57
2024/04/22 12:32:32;;;;;;;6.10;1.10;;;;;;;18.37;32.87;99605.30;78151;1315;3011421;-60
2024/04/22 12:35:01;;;;;;;2.20;1.00;;;;;;;18.25;33.37;99614.52;78068;1311;3011619;-59
2024/04/22 12:37:29;;;;;;;1.60;0.90;;;;;;;18.12;33.38;99612.98;77032;1315;3052492;-61
2024/04/22 12:39:56;;;;;;;1.60;0.90;;;;;;;18.30;33.37;99608.41;78305;1315;3017929;-59
2024/04/22 12:42:22;;;;;;;2.40;1.00;;;;;;;18.29;33.78;99608.99;77978;1316;3011617;-60
2024/04/22 12:44:51;;;;;;;4.60;1.00;;;;;;;18.25;33.98;99605.86;76995;1315;3028574;-59
2024/04/22 12:52:51;;;;;;;0.90;0.70;;;;;;;18.18;33.50;99593.01;77140;1312;3053635;-60
2024/04/22 12:55:18;;;;;;;1.10;0.80;;;;;;;18.15;34.31;99592.20;78028;1317;3018409;-60
2024/04/22 12:57:45;;;;;;;2.90;0.80;;;;;;;18.04;34.14;99593.33;78374;1315;3012539;-61
2024/04/22 13:00:13;;;;;;;7.20;1.20;;;;;;;18.04;34.12;99586.84;77006;1312;3028264;-60
2024/04/22 13:02:41;;;;;;;2.40;1.00;;;;;;;17.96;34.24;99584.17;78267;1312;3013567;-59
2024/04/22 13:05:07;;;;;;;2.20;1.40;;;;;;;17.94;34.60;99582.40;78243;1312;3013493;-59
2024/04/22 13:07:36;;;;;;;3.50;1.20;;;;;;;17.75;34.86;99577.48;77142;1312;3053466;-62
2024/04/22 13:10:03;;;;;;;2.30;1.20;;;;;;;17.74;35.23;99579.52;79015;1315;3013245;-60
2024/04/22 13:12:31;;;;;;;3.00;1.10;;;;;;;17.85;35.13;99578.70;78308;1312;3012069;-57
2024/04/22 13:14:59;;;;;;;3.60;1.50;;;;;;;17.98;34.70;99576.17;77098;1311;3069985;-58
2024/04/22 13:17:27;;;;;;;4.80;1.50;;;;;;;18.15;34.84;99574.63;78208;1312;3013912;-59
2024/04/22 13:19:55;;;;;;;2.20;1.30;;;;;;;18.31;34.49;99576.02;77962;1312;3011340;-59
2024/04/22 13:22:22;;;;;;;3.90;1.30;;;;;;;18.33;33.71;99577.64;77281;1315;3052704;-59
2024/04/22 13:24:49;;;;;;;2.90;0.90;;;;;;;18.24;33.46;99575.06;78378;1317;3018650;-59
2024/04/22 13:27:16;;;;;;;3.90;1.40;;;;;;;18.38;33.48;99577.53;78997;1311;3011763;-60